Time;durP1;ratioP1;P1;durP2;ratioP2;P2;SDS_P1;SDS_P2;PMS_P1;PMS_P2;Temp;Humidity;BMP_temperature;BMP_pressure;BME280_temperature;BME280_humidity;BME280_pressure;Samples;Min_cycle;Max_cycle;Signal;HPM_P1;HPM_P2
2022/03/15 00:00:50;;;;;;;25.00;12.40;;;;;;;10.61;52.88;98283.09;4906039;28;20166;-81
2022/03/15 00:03:15;;;;;;;19.35;8.32;;;;;;;10.73;52.87;98282.38;4907357;28;20137;-81
2022/03/15 00:05:41;;;;;;;14.02;6.25;;;;;;;10.75;52.52;98291.56;4908044;28;20190;-81
2022/03/15 00:08:07;;;;;;;6.22;3.55;;;;;;;10.70;52.63;98288.03;4938052;28;20224;-82
2022/03/15 00:10:33;;;;;;;5.78;3.30;;;;;;;10.62;53.07;98279.47;4938842;28;20196;-82
2022/03/15 00:12:59;;;;;;;4.45;2.30;;;;;;;10.70;52.76;98280.22;4907816;28;20227;-81
2022/03/15 00:15:25;;;;;;;6.57;2.53;;;;;;;10.60;53.34;98280.72;4903831;28;20281;-82
2022/03/15 00:17:50;;;;;;;4.32;2.47;;;;;;;10.53;53.37;98277.41;4928339;28;20293;-82
2022/03/15 00:20:22;;;;;;;5.10;2.20;;;;;;;10.46;53.72;98280.06;4907726;28;20415;-82
2022/03/15 00:22:49;;;;;;;4.47;2.80;;;;;;;10.39;53.90;98268.94;4921602;28;20299;-81
2022/03/15 00:25:18;;;;;;;6.25;2.92;;;;;;;10.34;53.97;98273.97;4920986;28;20200;-81
2022/03/15 00:27:49;;;;;;;3.10;2.35;;;;;;;10.26;54.15;98270.63;4938119;28;20196;-81
2022/03/15 00:30:14;;;;;;;4.45;2.72;;;;;;;10.37;53.77;98281.38;4911875;28;20448;-81
2022/03/15 00:32:41;;;;;;;4.43;2.20;;;;;;;10.44;53.59;98279.50;4941897;28;20349;-81
2022/03/15 00:35:16;;;;;;;6.18;2.33;;;;;;;10.33;54.25;98270.56;4913952;28;20189;-81
2022/03/15 00:37:43;;;;;;;5.45;1.88;;;;;;;10.39;53.84;98281.94;4930406;28;20165;-81
2022/03/15 00:40:09;;;;;;;4.28;1.90;;;;;;;10.36;53.87;98270.13;4907550;28;20267;-81
2022/03/15 00:42:34;;;;;;;3.10;1.90;;;;;;;10.31;54.20;98267.34;4912491;28;20638;-82
2022/03/15 00:45:01;;;;;;;5.25;2.63;;;;;;;10.22;54.33;98259.03;4905516;28;20697;-81
2022/03/15 00:47:27;;;;;;;3.28;1.70;;;;;;;10.20;54.50;98262.88;4938903;28;20363;-81
2022/03/15 00:49:53;;;;;;;3.03;1.88;;;;;;;10.27;54.29;98264.38;4924176;28;20280;-81
2022/03/15 00:52:18;;;;;;;4.07;1.63;;;;;;;10.32;54.03;98265.59;4922774;28;20379;-81
2022/03/15 00:54:44;;;;;;;4.68;1.98;;;;;;;10.28;54.21;98258.19;4921119;28;20188;-81
2022/03/15 00:57:10;;;;;;;2.75;1.52;;;;;;;10.29;53.75;98249.34;4924182;28;20177;-81
2022/03/15 00:59:35;;;;;;;2.40;1.70;;;;;;;10.39;53.89;98259.31;4924384;28;20217;-81
2022/03/15 01:02:01;;;;;;;4.35;1.60;;;;;;;10.34;54.11;98250.56;4925373;28;20648;-81
2022/03/15 01:04:27;;;;;;;3.97;2.08;;;;;;;10.34;54.12;98255.75;4918791;28;20625;-81
2022/03/15 01:06:52;;;;;;;2.70;1.50;;;;;;;10.41;53.56;98254.66;4918359;28;20264;-81
2022/03/15 01:09:18;;;;;;;4.75;1.77;;;;;;;10.33;54.22;98248.94;4917770;28;20186;-81
2022/03/15 01:11:43;;;;;;;3.63;1.60;;;;;;;10.30;54.36;98244.97;4904886;28;20279;-81
2022/03/15 01:14:09;;;;;;;2.90;2.13;;;;;;;10.31;54.99;98246.53;4921333;28;20680;-81
2022/03/15 01:16:34;;;;;;;4.85;2.13;;;;;;;10.28;54.84;98247.78;4938505;28;20204;-81
2022/03/15 01:19:00;;;;;;;4.30;1.92;;;;;;;10.20;54.49;98240.22;4915221;28;20260;-81
2022/03/15 01:21:26;;;;;;;6.55;2.60;;;;;;;10.20;55.07;98247.25;4925011;28;20177;-81
2022/03/15 01:23:53;;;;;;;7.32;3.90;;;;;;;10.16;54.83;98241.69;4919283;28;20343;-81
2022/03/15 01:26:18;;;;;;;7.57;4.20;;;;;;;10.18;54.22;98239.66;4913188;28;20192;-81
2022/03/15 01:28:44;;;;;;;7.00;3.17;;;;;;;10.13;54.69;98240.28;4941059;28;20217;-81
2022/03/15 01:31:11;;;;;;;4.70;2.60;;;;;;;10.12;54.20;98228.28;4922859;28;20347;-82
2022/03/15 01:33:37;;;;;;;5.60;2.92;;;;;;;10.04;54.92;98219.97;4930922;28;20543;-82
2022/03/15 01:36:02;;;;;;;4.28;2.72;;;;;;;9.85;55.56;98225.16;4921840;28;20235;-81
2022/03/15 01:38:28;;;;;;;4.85;3.13;;;;;;;9.82;55.73;98219.56;4919034;28;20189;-81
2022/03/15 01:40:53;;;;;;;5.35;2.50;;;;;;;9.83;55.46;98218.56;4938322;28;20289;-82
2022/03/15 01:43:18;;;;;;;3.10;1.77;;;;;;;9.86;55.43;98218.13;4915455;28;20212;-81
2022/03/15 01:45:44;;;;;;;3.45;1.77;;;;;;;9.88;55.28;98209.09;4921568;28;20193;-82
2022/03/15 01:48:09;;;;;;;2.63;1.63;;;;;;;9.83;55.58;98203.72;4921930;28;20289;-81
2022/03/15 01:50:36;;;;;;;4.63;2.30;;;;;;;9.89;55.56;98215.91;4926160;28;20192;-81
2022/03/15 01:53:02;;;;;;;2.72;1.77;;;;;;;9.98;55.39;98223.44;4908446;28;20208;-81
2022/03/15 01:55:28;;;;;;;3.08;1.83;;;;;;;9.97;55.15;98214.03;4906891;28;20286;-81
2022/03/15 01:57:54;;;;;;;3.58;2.00;;;;;;;10.09;54.68;98220.94;4913941;28;20195;-81
2022/03/15 02:00:20;;;;;;;3.15;1.63;;;;;;;10.10;55.41;98224.31;4929715;28;20234;-81
2022/03/15 02:02:46;;;;;;;1.60;1.25;;;;;;;10.14;54.87;98217.66;4931457;28;20286;-81
2022/03/15 02:05:21;;;;;;;5.70;1.80;;;;;;;10.15;54.58;98211.47;4935741;28;20274;-82
2022/03/15 02:07:47;;;;;;;4.45;1.88;;;;;;;10.05;55.20;98206.75;4915946;28;20268;-81
2022/03/15 02:10:12;;;;;;;2.65;1.52;;;;;;;10.09;55.27;98201.91;4931356;28;20097;-81
2022/03/15 02:12:38;;;;;;;2.63;1.23;;;;;;;10.03;55.61;98213.97;4933254;28;20653;-81
2022/03/15 02:15:06;;;;;;;2.90;1.83;;;;;;;10.10;54.88;98206.09;4933203;28;20146;-81
2022/03/15 02:17:31;;;;;;;2.08;1.17;;;;;;;10.09;55.11;98194.91;4912399;28;20166;-81
2022/03/15 02:19:57;;;;;;;4.13;1.35;;;;;;;10.04;55.47;98193.94;4943352;28;20199;-82
2022/03/15 02:22:22;;;;;;;3.22;1.85;;;;;;;10.03;55.34;98203.56;4949739;28;20213;-81
2022/03/15 02:24:48;;;;;;;3.00;1.63;;;;;;;10.10;54.91;98200.91;4931705;28;20239;-81
2022/03/15 02:27:14;;;;;;;3.67;1.55;;;;;;;10.22;54.61;98199.16;4933276;28;20200;-81
2022/03/15 02:29:40;;;;;;;3.47;1.67;;;;;;;10.37;54.14;98198.06;4933806;28;20262;-82
2022/03/15 02:32:07;;;;;;;3.75;1.40;;;;;;;10.25;54.81;98190.94;4949690;28;20165;-82
2022/03/15 02:34:33;;;;;;;4.45;1.70;;;;;;;10.15;54.94;98195.84;4916491;28;20188;-81
2022/03/15 02:36:59;;;;;;;2.13;1.13;;;;;;;10.13;55.06;98196.06;4913719;28;20713;-82
2022/03/15 02:39:24;;;;;;;5.70;1.50;;;;;;;10.12;55.03;98194.44;4933377;28;20211;-81
2022/03/15 02:41:49;;;;;;;3.15;1.30;;;;;;;10.09;55.19;98170.66;4917171;28;20250;-81
2022/03/15 02:44:15;;;;;;;1.95;1.50;;;;;;;10.22;54.83;98180.16;4931732;28;20302;-82
2022/03/15 02:46:41;;;;;;;2.92;1.02;;;;;;;10.22;54.87;98175.75;4948806;28;20665;-81
2022/03/15 02:49:07;;;;;;;1.80;1.30;;;;;;;10.16;55.22;98173.22;4948633;28;20182;-81
2022/03/15 02:51:32;;;;;;;2.63;1.05;;;;;;;10.36;54.57;98173.03;4933069;28;20655;-81
2022/03/15 02:53:59;;;;;;;3.22;1.40;;;;;;;10.47;53.97;98167.88;4932644;28;20276;-81
2022/03/15 02:56:25;;;;;;;4.00;1.00;;;;;;;10.43;54.43;98171.91;4917080;28;20172;-81
2022/03/15 02:58:50;;;;;;;2.88;1.10;;;;;;;10.38;54.05;98171.78;4949374;28;20133;-81
2022/03/15 03:01:16;;;;;;;3.20;1.10;;;;;;;10.37;54.13;98172.03;4932844;28;20191;-81
2022/03/15 03:03:41;;;;;;;2.47;1.35;;;;;;;10.29;54.53;98173.84;4916767;28;20641;-81
2022/03/15 03:06:07;;;;;;;1.83;1.23;;;;;;;10.26;54.80;98171.72;4949162;28;20595;-81
2022/03/15 03:08:33;;;;;;;1.75;1.15;;;;;;;10.23;55.00;98171.31;4930244;28;20294;-81
2022/03/15 03:10:59;;;;;;;1.67;1.00;;;;;;;10.19;55.28;98162.38;4916157;28;20275;-81
2022/03/15 03:13:27;;;;;;;3.55;1.60;;;;;;;10.12;55.63;98175.44;4949568;28;20597;-82
2022/03/15 03:15:57;;;;;;;2.33;1.20;;;;;;;10.13;55.53;98166.66;4932841;28;20272;-81
2022/03/15 03:18:28;;;;;;;3.28;1.48;;;;;;;9.94;55.65;98171.03;4913928;28;20217;-82
2022/03/15 03:20:54;;;;;;;1.60;1.00;;;;;;;9.99;55.43;98170.38;4942895;28;20706;-81
2022/03/15 03:23:20;;;;;;;1.33;1.10;;;;;;;9.99;55.60;98157.38;4932945;28;20216;-81
2022/03/15 03:25:46;;;;;;;1.90;0.90;;;;;;;10.05;55.44;98164.31;4917728;28;20170;-82
2022/03/15 03:28:14;;;;;;;2.80;1.02;;;;;;;9.98;56.08;98153.19;4924608;28;20254;-82
2022/03/15 03:30:47;;;;;;;2.55;1.02;;;;;;;9.86;55.75;98161.69;4953865;28;20234;-82
2022/03/15 03:33:17;;;;;;;3.50;1.08;;;;;;;9.99;55.31;98152.97;4938948;28;20283;-82
2022/03/15 03:35:45;;;;;;;3.30;1.52;;;;;;;10.03;55.64;98161.16;4920221;28;20227;-81
2022/03/15 03:38:12;;;;;;;3.38;0.85;;;;;;;10.04;55.57;98160.13;4937156;28;20711;-82
2022/03/15 03:40:37;;;;;;;2.47;0.98;;;;;;;10.03;55.21;98156.72;4952697;28;20269;-82
2022/03/15 03:43:04;;;;;;;3.67;0.80;;;;;;;10.02;55.20;98156.94;4952948;28;20272;-82
2022/03/15 03:45:29;;;;;;;1.30;1.10;;;;;;;10.02;55.32;98147.31;4936052;28;20221;-82
2022/03/15 03:47:54;;;;;;;2.17;1.20;;;;;;;9.96;55.53;98150.00;4921737;28;20706;-82
2022/03/15 03:50:20;;;;;;;3.13;1.60;;;;;;;9.98;55.60;98146.16;4935687;28;20228;-82
2022/03/15 03:52:45;;;;;;;3.33;1.38;;;;;;;9.97;55.65;98141.19;4930184;28;20371;-82
2022/03/15 03:55:11;;;;;;;2.05;1.30;;;;;;;10.00;55.30;98140.75;4935958;28;20846;-82
2022/03/15 03:57:37;;;;;;;2.28;1.33;;;;;;;10.04;55.46;98136.69;4952661;28;20710;-82
2022/03/15 04:00:04;;;;;;;2.45;1.25;;;;;;;10.03;55.67;98138.50;4919754;28;20624;-82
2022/03/15 04:02:29;;;;;;;2.15;1.20;;;;;;;10.08;55.16;98138.66;4933238;28;20303;-82
2022/03/15 04:04:54;;;;;;;2.95;1.20;;;;;;;10.05;55.55;98131.28;4915950;28;20727;-81
2022/03/15 04:07:20;;;;;;;3.80;1.20;;;;;;;10.12;55.39;98136.41;4936618;28;20208;-82
2022/03/15 04:09:46;;;;;;;2.20;0.70;;;;;;;10.15;54.98;98135.19;4917257;28;20301;-82
2022/03/15 04:12:12;;;;;;;4.82;0.93;;;;;;;10.18;55.04;98127.75;4916662;28;20635;-82
2022/03/15 04:14:37;;;;;;;2.75;1.52;;;;;;;10.07;55.43;98134.47;4917707;28;20282;-81
2022/03/15 04:17:03;;;;;;;3.78;1.20;;;;;;;10.14;55.31;98137.00;4934369;28;20285;-81
2022/03/15 04:19:29;;;;;;;2.42;1.23;;;;;;;10.11;55.74;98137.44;4916251;28;20169;-82
2022/03/15 04:21:54;;;;;;;5.72;1.55;;;;;;;10.05;56.00;98138.31;4916207;28;20208;-82
2022/03/15 04:24:19;;;;;;;2.95;1.25;;;;;;;9.94;56.18;98134.63;4932323;28;20345;-81
2022/03/15 04:26:46;;;;;;;1.70;1.00;;;;;;;9.91;56.35;98135.84;4935421;28;20886;-81
2022/03/15 04:29:12;;;;;;;2.33;1.20;;;;;;;9.88;56.33;98133.66;4935465;28;20208;-81
2022/03/15 04:31:37;;;;;;;3.70;1.42;;;;;;;9.80;56.69;98120.97;4918662;28;20684;-82
2022/03/15 04:34:02;;;;;;;4.03;1.88;;;;;;;9.75;56.71;98113.78;4933925;28;20265;-81
2022/03/15 04:36:28;;;;;;;4.05;1.77;;;;;;;9.81;56.79;98125.13;4918678;28;20208;-81
2022/03/15 04:38:53;;;;;;;4.35;1.52;;;;;;;9.82;56.53;98118.13;4918645;28;20630;-81
2022/03/15 04:41:19;;;;;;;4.88;1.90;;;;;;;9.80;56.78;98105.34;4951977;28;20678;-81
2022/03/15 04:43:44;;;;;;;2.72;1.30;;;;;;;9.77;56.83;98107.56;4912259;28;20598;-82
2022/03/15 04:46:11;;;;;;;3.13;1.55;;;;;;;9.74;56.83;98098.41;4916145;28;20296;-81
2022/03/15 04:48:37;;;;;;;3.90;2.00;;;;;;;9.75;56.65;98098.19;4934813;28;20161;-81
2022/03/15 04:51:02;;;;;;;4.10;1.90;;;;;;;9.75;56.74;98094.81;4935169;28;20204;-81
2022/03/15 04:53:28;;;;;;;3.67;1.73;;;;;;;9.68;57.45;98099.25;4915858;28;20212;-81
2022/03/15 04:55:53;;;;;;;5.60;2.10;;;;;;;9.65;57.51;98094.50;4934753;28;20283;-82
2022/03/15 04:58:19;;;;;;;5.30;2.60;;;;;;;9.71;57.18;98107.41;4951431;28;20200;-82
2022/03/15 05:00:44;;;;;;;4.22;1.80;;;;;;;9.64;57.09;98095.50;4915281;28;20170;-82
2022/03/15 05:03:10;;;;;;;4.40;1.90;;;;;;;9.73;57.05;98104.59;4933969;28;20216;-82
2022/03/15 05:05:36;;;;;;;2.80;1.70;;;;;;;9.73;56.36;98095.00;4934817;28;20275;-81
2022/03/15 05:08:02;;;;;;;3.92;1.73;;;;;;;9.75;56.78;98100.00;4934215;28;20649;-82
2022/03/15 05:13:13;;;;;;;2.85;1.50;;;;;;;9.72;56.66;98109.00;4953738;28;20184;-81
2022/03/15 05:15:39;;;;;;;3.33;1.55;;;;;;;9.75;56.60;98105.19;4933263;28;20276;-82
2022/03/15 05:18:05;;;;;;;3.88;1.90;;;;;;;9.73;56.94;98104.59;4951130;28;20714;-82
2022/03/15 05:20:31;;;;;;;4.30;1.35;;;;;;;9.75;56.81;98103.38;4916142;28;20252;-82
2022/03/15 05:22:56;;;;;;;2.40;1.30;;;;;;;9.72;56.49;98103.03;4930458;28;20286;-81
2022/03/15 05:25:22;;;;;;;2.88;1.83;;;;;;;9.79;56.45;98108.16;4915015;28;20289;-82
2022/03/15 05:27:47;;;;;;;4.40;1.45;;;;;;;9.77;56.76;98104.97;4948830;28;20200;-81
2022/03/15 05:30:13;;;;;;;3.28;1.75;;;;;;;9.73;56.62;98107.19;4931323;28;20197;-81
2022/03/15 05:32:39;;;;;;;4.28;1.70;;;;;;;9.73;56.49;98105.41;4927682;28;20178;-82
2022/03/15 05:35:05;;;;;;;3.83;1.75;;;;;;;9.74;56.27;98106.19;4931831;28;20196;-81
2022/03/15 05:37:30;;;;;;;4.40;1.70;;;;;;;9.73;56.58;98091.59;4918119;28;20275;-81
2022/03/15 05:39:56;;;;;;;2.28;1.42;;;;;;;9.74;56.65;98098.41;4929113;28;20764;-81
2022/03/15 05:42:22;;;;;;;3.75;2.45;;;;;;;9.74;56.85;98096.59;4924304;28;20220;-82
2022/03/15 05:44:47;;;;;;;4.07;1.63;;;;;;;9.77;56.48;98099.75;4917546;28;20365;-81
2022/03/15 05:47:13;;;;;;;2.80;1.40;;;;;;;9.75;56.35;98097.41;4932373;28;20789;-82
2022/03/15 05:49:38;;;;;;;2.38;1.23;;;;;;;9.77;56.55;98099.75;4933782;28;20197;-81
2022/03/15 05:52:04;;;;;;;2.63;1.15;;;;;;;9.78;56.43;98090.97;4933930;28;20216;-81
2022/03/15 05:54:30;;;;;;;1.73;1.50;;;;;;;9.87;55.90;98094.84;4932121;28;20222;-82
2022/03/15 05:56:56;;;;;;;2.83;1.40;;;;;;;9.94;55.46;98109.38;4934044;28;20646;-82
2022/03/15 05:59:21;;;;;;;2.83;1.17;;;;;;;9.88;56.23;98102.44;4917430;28;20262;-81
2022/03/15 06:01:47;;;;;;;2.00;1.30;;;;;;;9.82;56.18;98105.09;4917509;28;20160;-81
2022/03/15 06:04:12;;;;;;;3.00;1.35;;;;;;;9.85;56.54;98097.69;4916540;28;20232;-81
2022/03/15 06:06:38;;;;;;;5.38;1.48;;;;;;;9.93;56.43;98100.00;4916775;28;20283;-81
2022/03/15 06:09:03;;;;;;;1.70;1.15;;;;;;;9.89;56.66;98096.25;4927806;28;20311;-81
2022/03/15 06:11:31;;;;;;;3.22;1.10;;;;;;;9.89;56.78;98098.06;4912954;28;20163;-81
2022/03/15 06:13:57;;;;;;;2.10;1.17;;;;;;;9.86;57.19;98091.47;4912971;28;20185;-81
2022/03/15 06:16:22;;;;;;;2.35;1.20;;;;;;;9.82;57.77;98082.53;4913382;28;20272;-82
2022/03/15 06:18:47;;;;;;;3.08;1.75;;;;;;;9.83;57.29;98078.88;4916590;28;20251;-81
2022/03/15 06:21:13;;;;;;;3.00;1.80;;;;;;;9.81;57.06;98085.34;4932241;28;20165;-82
2022/03/15 06:23:38;;;;;;;3.95;2.20;;;;;;;9.78;57.09;98091.75;4916135;28;20725;-81
2022/03/15 06:26:03;;;;;;;3.72;2.00;;;;;;;9.74;57.14;98075.78;4932426;28;20195;-82
2022/03/15 06:28:29;;;;;;;3.47;1.80;;;;;;;9.99;56.84;98089.72;4930976;28;20276;-82
2022/03/15 06:30:57;;;;;;;4.15;2.58;;;;;;;9.89;56.85;98083.22;4923083;28;20709;-82
2022/03/15 06:33:22;;;;;;;7.30;4.43;;;;;;;9.87;57.01;98082.66;4927566;28;20108;-82
2022/03/15 06:35:48;;;;;;;7.18;3.80;;;;;;;10.03;56.51;98083.09;4916593;28;20357;-82
2022/03/15 06:38:13;;;;;;;4.63;2.70;;;;;;;10.08;56.22;98088.44;4933474;28;20276;-82
2022/03/15 06:40:42;;;;;;;3.33;1.77;;;;;;;10.09;56.17;98083.00;4916934;28;20188;-82
2022/03/15 06:43:09;;;;;;;3.30;1.83;;;;;;;10.06;56.67;98083.44;4923181;28;20611;-82
2022/03/15 06:45:34;;;;;;;3.78;1.70;;;;;;;9.96;57.41;98079.78;4916538;28;20524;-82
2022/03/15 06:48:00;;;;;;;2.35;1.60;;;;;;;9.97;57.76;98083.94;4932253;28;20192;-82
2022/03/15 06:50:25;;;;;;;3.63;1.63;;;;;;;10.01;58.23;98080.69;4932969;28;20296;-82
2022/03/15 06:52:50;;;;;;;2.88;1.60;;;;;;;10.03;58.17;98083.88;4943599;28;20698;-82
2022/03/15 06:55:16;;;;;;;2.35;1.50;;;;;;;10.10;57.93;98078.59;4947299;28;20352;-82
2022/03/15 06:57:42;;;;;;;1.88;1.60;;;;;;;10.20;58.09;98072.88;4913415;28;20650;-82
2022/03/15 07:00:10;;;;;;;3.03;1.67;;;;;;;10.22;57.63;98082.03;4943302;28;20157;-81
2022/03/15 07:02:36;;;;;;;4.38;1.80;;;;;;;10.29;57.21;98064.53;4932520;28;20578;-83
2022/03/15 07:05:02;;;;;;;2.88;1.58;;;;;;;10.32;56.61;98070.38;4948632;28;20211;-82
2022/03/15 07:07:27;;;;;;;4.38;1.60;;;;;;;10.35;56.59;98069.91;4948206;28;20631;-81
2022/03/15 07:09:54;;;;;;;2.60;1.92;;;;;;;10.37;56.20;98062.69;4913029;28;20216;-82
2022/03/15 07:12:22;;;;;;;2.13;1.45;;;;;;;10.22;56.62;98063.03;4927669;28;20158;-82
2022/03/15 07:14:49;;;;;;;2.42;1.13;;;;;;;10.30;56.66;98060.13;4947939;28;20207;-81
2022/03/15 07:17:14;;;;;;;3.42;1.23;;;;;;;10.32;56.79;98055.53;4966577;28;20697;-81
2022/03/15 07:19:40;;;;;;;2.00;1.50;;;;;;;10.36;56.45;98053.28;4947597;28;20193;-81
2022/03/15 07:22:06;;;;;;;4.00;1.13;;;;;;;10.38;56.63;98057.22;4932178;28;20226;-81
2022/03/15 07:24:32;;;;;;;3.88;1.55;;;;;;;10.42;56.38;98063.59;4943865;28;20204;-81
2022/03/15 07:26:58;;;;;;;3.08;1.55;;;;;;;10.44;56.61;98051.16;4915545;28;20244;-81
2022/03/15 07:29:24;;;;;;;2.95;1.60;;;;;;;10.52;56.19;98050.06;4946235;28;20361;-82
2022/03/15 07:31:49;;;;;;;2.45;1.25;;;;;;;10.55;56.45;98054.03;4915985;28;20196;-81
2022/03/15 07:34:14;;;;;;;3.03;1.17;;;;;;;10.58;56.39;98041.34;4916348;28;20170;-81
2022/03/15 07:36:40;;;;;;;2.67;1.15;;;;;;;10.63;56.71;98040.69;4928310;28;20272;-82
2022/03/15 07:39:05;;;;;;;2.22;1.10;;;;;;;10.64;56.46;98035.25;4926390;28;20205;-81
2022/03/15 07:41:32;;;;;;;3.15;1.42;;;;;;;10.72;56.67;98034.13;4922925;28;20169;-81
2022/03/15 07:43:58;;;;;;;4.88;1.40;;;;;;;10.83;56.41;98032.56;4915670;28;20374;-82
2022/03/15 07:46:24;;;;;;;4.32;1.05;;;;;;;10.86;56.13;98038.13;4915782;28;20270;-82
2022/03/15 07:48:49;;;;;;;2.85;0.90;;;;;;;11.06;55.67;98044.84;4932196;28;20173;-82
2022/03/15 07:51:15;;;;;;;2.15;1.10;;;;;;;11.15;55.02;98042.69;4946744;28;20701;-82
2022/03/15 07:53:40;;;;;;;3.45;1.00;;;;;;;11.22;55.76;98043.34;4948056;28;20707;-82
2022/03/15 07:56:07;;;;;;;4.47;1.58;;;;;;;11.28;55.27;98041.69;4930818;28;20311;-82
2022/03/15 07:58:32;;;;;;;3.20;1.50;;;;;;;11.28;55.39;98047.69;4948419;28;20286;-82
2022/03/15 08:00:59;;;;;;;4.40;1.40;;;;;;;11.32;55.22;98043.59;4932724;28;20291;-81
2022/03/15 08:03:24;;;;;;;2.22;1.50;;;;;;;11.38;55.58;98042.69;4932316;28;20191;-81
2022/03/15 08:05:50;;;;;;;2.70;1.40;;;;;;;11.39;55.32;98033.81;4949647;28;20285;-82
2022/03/15 08:08:16;;;;;;;3.58;1.27;;;;;;;11.39;55.47;98043.47;4931418;28;20177;-82
2022/03/15 08:10:43;;;;;;;3.38;1.60;;;;;;;11.42;55.67;98041.19;4933632;28;20626;-82
2022/03/15 08:13:08;;;;;;;3.15;1.30;;;;;;;11.36;56.18;98036.91;4942100;28;20200;-82
2022/03/15 08:15:34;;;;;;;4.07;1.15;;;;;;;11.42;56.62;98037.81;4918007;28;20207;-82
2022/03/15 08:18:02;;;;;;;4.75;1.45;;;;;;;11.44;56.02;98036.53;4920281;28;20201;-82
2022/03/15 08:20:33;;;;;;;3.28;1.10;;;;;;;11.44;55.57;98033.94;4951483;28;20356;-82
2022/03/15 08:23:01;;;;;;;3.35;1.30;;;;;;;11.39;55.92;98033.81;4933439;28;20223;-82
2022/03/15 08:25:27;;;;;;;3.05;1.73;;;;;;;11.47;56.56;98029.31;4926608;28;20173;-82
2022/03/15 08:27:53;;;;;;;2.70;1.50;;;;;;;11.54;56.91;98027.38;4921126;28;20804;-82
2022/03/15 08:30:20;;;;;;;3.45;1.23;;;;;;;11.72;56.20;98023.81;4914232;28;20162;-82
2022/03/15 08:32:46;;;;;;;2.90;1.40;;;;;;;11.72;57.24;98015.97;4932181;28;20673;-82
2022/03/15 08:35:11;;;;;;;3.08;1.08;;;;;;;11.79;56.94;98014.84;4914950;28;20298;-82
2022/03/15 08:37:37;;;;;;;2.60;1.23;;;;;;;11.80;56.28;98005.19;4930041;28;20240;-82
2022/03/15 08:40:03;;;;;;;2.67;1.25;;;;;;;11.84;56.92;98006.31;4933965;28;20366;-82
2022/03/15 08:42:29;;;;;;;4.15;1.52;;;;;;;11.97;57.45;98005.28;4921590;28;20208;-82
2022/03/15 08:44:54;;;;;;;1.80;1.20;;;;;;;12.08;57.72;98006.25;4934957;28;20180;-83
2022/03/15 08:47:20;;;;;;;2.65;1.20;;;;;;;12.09;58.00;98003.41;4925020;28;20479;-82
2022/03/15 08:49:45;;;;;;;2.95;1.35;;;;;;;12.08;56.88;97996.63;4905088;28;20332;-82
2022/03/15 08:52:12;;;;;;;2.58;1.05;;;;;;;12.05;56.79;97989.25;4913817;28;20261;-82
2022/03/15 08:54:38;;;;;;;4.03;1.30;;;;;;;12.04;57.22;97989.47;4929740;28;20607;-82
2022/03/15 08:57:04;;;;;;;3.55;1.20;;;;;;;12.02;57.54;97979.28;4950402;28;20285;-81
2022/03/15 08:59:29;;;;;;;3.28;1.50;;;;;;;12.04;57.93;97977.22;4933993;28;20610;-81
2022/03/15 09:01:55;;;;;;;2.40;1.25;;;;;;;12.09;58.14;97979.13;4933770;28;20293;-82
2022/03/15 09:04:20;;;;;;;4.43;1.48;;;;;;;12.05;58.48;97972.81;4955757;28;20166;-82
2022/03/15 09:06:47;;;;;;;2.92;1.45;;;;;;;12.02;58.50;97968.84;4950152;28;20286;-83
2022/03/15 09:09:15;;;;;;;2.67;1.52;;;;;;;12.04;58.72;97961.56;4917306;28;20274;-83
2022/03/15 09:11:41;;;;;;;4.03;1.60;;;;;;;12.10;58.66;97958.03;4950990;28;20282;-83
2022/03/15 09:14:06;;;;;;;2.78;1.50;;;;;;;12.03;58.61;97954.78;4931441;28;20204;-82
2022/03/15 09:16:32;;;;;;;2.65;1.25;;;;;;;12.07;58.84;97960.31;4922851;28;20242;-83
2022/03/15 09:18:58;;;;;;;3.50;1.40;;;;;;;12.02;58.54;97957.59;4929381;28;20204;-83
2022/03/15 09:21:26;;;;;;;3.78;1.20;;;;;;;12.03;58.57;97953.97;4935592;28;20636;-83
2022/03/15 09:23:51;;;;;;;2.72;1.40;;;;;;;11.91;58.80;97936.56;4934854;28;20180;-83
2022/03/15 09:26:16;;;;;;;3.72;1.60;;;;;;;12.00;59.15;97944.78;4937732;28;20350;-84
2022/03/15 09:28:44;;;;;;;5.65;2.00;;;;;;;12.01;59.42;97940.34;4934099;28;20200;-84
2022/03/15 09:31:09;;;;;;;2.60;1.20;;;;;;;12.03;59.20;97928.66;4932368;28;20347;-84
2022/03/15 09:33:38;;;;;;;4.47;1.20;;;;;;;12.00;60.04;97926.53;4928573;28;20280;-85
2022/03/15 09:36:04;;;;;;;3.17;1.70;;;;;;;12.05;59.78;97928.44;4942375;28;20357;-85
2022/03/15 09:38:30;;;;;;;3.63;1.58;;;;;;;12.13;59.86;97933.25;4928315;28;20177;-85
2022/03/15 09:40:55;;;;;;;6.43;2.03;;;;;;;12.10;59.92;97921.47;4917755;28;20200;-84
2022/03/15 09:43:24;;;;;;;6.18;1.80;;;;;;;11.95;59.80;97908.16;4934691;28;20211;-85
2022/03/15 09:45:51;;;;;;;2.90;1.58;;;;;;;12.12;60.08;97929.84;4934279;28;20646;-85
2022/03/15 09:48:21;;;;;;;4.63;1.83;;;;;;;12.06;59.83;97927.41;4912746;28;20397;-85
2022/03/15 09:50:49;;;;;;;3.10;1.80;;;;;;;12.14;60.53;97919.97;4926139;28;20500;-85
2022/03/15 09:53:16;;;;;;;7.13;2.00;;;;;;;12.05;60.55;97897.13;4915930;28;20276;-85
2022/03/15 09:55:45;;;;;;;5.13;2.47;;;;;;;12.05;60.64;97921.38;4942743;28;20679;-85
2022/03/15 09:58:19;;;;;;;4.10;2.90;;;;;;;11.99;60.85;97904.84;4932627;28;20220;-85
2022/03/15 10:00:46;;;;;;;3.17;2.63;;;;;;;12.13;61.17;97902.75;4923226;28;20249;-85
2022/03/15 10:03:13;;;;;;;4.95;2.75;;;;;;;12.02;61.25;97895.75;4915465;28;20634;-85
2022/03/15 10:05:39;;;;;;;3.53;2.20;;;;;;;11.99;60.92;97868.31;4933965;28;20728;-85
2022/03/15 10:08:05;;;;;;;7.18;3.10;;;;;;;12.04;61.27;97872.03;4914530;28;20349;-85
2022/03/15 10:10:30;;;;;;;9.13;4.50;;;;;;;11.98;61.52;97868.56;4933587;28;20284;-85
2022/03/15 10:12:55;;;;;;;6.68;4.38;;;;;;;12.01;62.02;97868.06;4917253;28;20239;-85
2022/03/15 10:15:22;;;;;;;5.57;3.55;;;;;;;12.10;62.32;97871.88;4932928;28;20268;-85
2022/03/15 10:18:04;;;;;;;4.47;2.67;;;;;;;11.94;62.73;97865.63;4915746;28;20171;-85
2022/03/15 10:20:38;;;;;;;4.60;2.67;;;;;;;11.92;62.90;97846.00;4926848;28;20230;-85
2022/03/15 10:23:03;;;;;;;7.40;2.83;;;;;;;12.18;62.33;97848.00;4915659;28;20258;-85
2022/03/15 10:25:31;;;;;;;3.50;2.40;;;;;;;12.20;62.34;97852.19;4933523;28;20196;-85
2022/03/15 10:28:00;;;;;;;6.20;3.35;;;;;;;12.18;62.79;97845.38;4908883;28;20237;-85
2022/03/15 10:30:27;;;;;;;5.35;2.88;;;;;;;12.17;62.95;97832.56;4917400;28;20250;-85
2022/03/15 10:32:53;;;;;;;4.90;2.78;;;;;;;12.16;63.09;97805.66;4916488;28;20211;-85
2022/03/15 10:35:27;;;;;;;5.22;2.70;;;;;;;12.09;62.93;97812.84;4940179;28;20288;-85
2022/03/15 10:37:54;;;;;;;6.75;3.20;;;;;;;12.20;63.45;97799.97;4910651;28;20216;-85
2022/03/15 10:40:37;;;;;;;4.72;2.55;;;;;;;12.12;63.20;97795.94;4933118;28;20191;-85
2022/03/15 10:43:07;;;;;;;4.88;2.58;;;;;;;12.46;62.52;97816.81;4954826;28;20706;-85
2022/03/15 10:45:34;;;;;;;4.63;2.63;;;;;;;12.62;61.98;97817.78;4917323;28;20256;-85
2022/03/15 10:48:00;;;;;;;2.67;1.80;;;;;;;12.42;62.54;97807.84;4929252;28;20716;-85
2022/03/15 10:50:26;;;;;;;2.55;1.70;;;;;;;12.53;62.49;97802.53;4952062;28;20264;-89
2022/03/15 10:52:53;;;;;;;2.42;1.83;;;;;;;12.58;61.93;97801.00;4933748;28;20278;-85
2022/03/15 10:55:29;;;;;;;3.35;1.55;;;;;;;12.35;62.86;97801.00;4940517;28;20293;-86
2022/03/15 10:58:03;;;;;;;2.75;1.55;;;;;;;12.58;62.53;97803.59;4915390;28;20194;-85
2022/03/15 11:00:32;;;;;;;2.40;1.58;;;;;;;12.54;62.05;97798.09;4933520;28;20294;-86
2022/03/15 11:02:59;;;;;;;2.75;1.90;;;;;;;12.56;61.87;97796.03;4949645;28;20716;-86
2022/03/15 11:05:24;;;;;;;3.05;1.92;;;;;;;12.57;62.39;97787.16;4916856;28;20284;-86
2022/03/15 11:07:50;;;;;;;3.97;1.80;;;;;;;12.66;62.55;97785.72;4967689;28;20250;-86
2022/03/15 11:10:15;;;;;;;2.53;1.52;;;;;;;12.59;61.86;97766.81;4914261;28;20166;-86
2022/03/15 11:12:58;;;;;;;2.53;1.45;;;;;;;12.57;62.30;97770.69;4931319;28;20112;-86
2022/03/15 11:15:30;;;;;;;2.97;1.27;;;;;;;12.45;62.37;97753.31;4931853;28;20181;-86
2022/03/15 11:18:04;;;;;;;3.35;1.80;;;;;;;12.54;62.13;97764.13;4914654;28;20267;-86
2022/03/15 11:20:37;;;;;;;2.05;1.30;;;;;;;12.51;62.23;97741.13;4911983;28;20533;-86
2022/03/15 11:23:05;;;;;;;3.10;1.60;;;;;;;12.62;62.27;97740.19;4914776;28;20186;-86
2022/03/15 11:25:35;;;;;;;1.58;1.25;;;;;;;12.62;61.91;97737.59;4917861;28;20195;-86
2022/03/15 11:28:04;;;;;;;3.35;1.55;;;;;;;12.69;62.47;97721.72;4933327;28;20257;-86
2022/03/15 11:30:31;;;;;;;4.22;1.77;;;;;;;12.47;62.36;97704.22;4916486;28;20076;-87
2022/03/15 11:32:57;;;;;;;2.10;1.60;;;;;;;12.67;62.92;97729.81;4933190;28;20708;-87
2022/03/15 11:35:23;;;;;;;2.08;1.50;;;;;;;12.67;62.65;97708.91;4933831;28;20144;-87